createdAt,value
2018-06-28T00:00:20.270Z,95.55
2018-06-28T00:01:20.254Z,94.88
2018-06-28T00:02:20.264Z,96.22
2018-06-28T00:03:20.196Z,95.75
2018-06-28T00:04:20.213Z,95.75
2018-06-28T00:05:20.152Z,95.21
2018-06-28T00:06:20.135Z,96.22
2018-06-28T00:07:20.096Z,96.22
2018-06-28T00:08:20.109Z,96.22
2018-06-28T00:09:20.048Z,96.22
2018-06-28T00:10:20.065Z,95.98
2018-06-28T00:11:20.139Z,95.89
2018-06-28T00:12:19.986Z,95.98
2018-06-28T00:13:19.951Z,95.89
2018-06-28T00:14:19.925Z,96.37
2018-06-28T00:15:19.896Z,96.47
2018-06-28T00:16:19.913Z,95.79
2018-06-28T00:17:19.849Z,95.60
2018-06-28T00:18:19.897Z,96.37
2018-06-28T00:19:19.797Z,96.27
2018-06-28T00:20:19.769Z,96.27
2018-06-28T00:21:19.790Z,96.66
2018-06-28T00:22:19.766Z,95.79
2018-06-28T00:23:19.698Z,97.14
2018-06-28T00:24:19.680Z,96.18
2018-06-28T00:25:19.696Z,96.94
2018-06-28T00:26:19.626Z,97.61
2018-06-28T00:27:19.595Z,97.42
2018-06-28T00:28:19.573Z,97.71
2018-06-28T00:29:19.553Z,97.42
2018-06-28T00:30:19.566Z,96.56
2018-06-28T00:31:19.502Z,97.76
2018-06-28T00:32:19.478Z,97.95
2018-06-28T00:33:19.501Z,97.81
2018-06-28T00:34:19.426Z,97.66
2018-06-28T00:35:19.438Z,97.85
2018-06-28T00:36:19.378Z,98.24
2018-06-28T00:37:19.353Z,98.14
2018-06-28T00:38:19.390Z,98.24
2018-06-28T00:39:19.300Z,98.05
2018-06-28T00:40:19.272Z,98.33
2018-06-28T00:41:19.283Z,98.24
2018-06-28T00:42:19.222Z,97.95
2018-06-28T00:43:19.238Z,98.52
2018-06-28T00:44:19.176Z,98.52
2018-06-28T00:45:19.146Z,98.72
2018-06-28T00:46:19.169Z,98.72
2018-06-28T00:47:19.101Z,98.14
2018-06-28T00:48:19.076Z,99.29
2018-06-28T00:49:19.046Z,98.67
2018-06-28T00:50:19.068Z,99.29
2018-06-28T00:51:19.068Z,99.10
2018-06-28T00:52:18.971Z,99.39
2018-06-28T00:53:19.384Z,99.39
2018-06-28T00:54:18.919Z,99.39
2018-06-28T00:55:18.948Z,99.72
2018-06-28T00:56:18.930Z,99.53
2018-06-28T00:57:18.844Z,99.72
2018-06-28T00:58:18.821Z,99.91
2018-06-28T00:59:18.792Z,99.91
2018-06-28T01:00:18.771Z,99.99
2018-06-28T01:01:18.785Z,99.82
2018-06-28T01:02:18.717Z,99.99
2018-06-28T01:03:18.692Z,99.99
2018-06-28T01:04:18.669Z,99.99
2018-06-28T01:05:18.643Z,99.99
2018-06-28T01:06:18.663Z,99.99
2018-06-28T01:07:18.591Z,99.99
2018-06-28T01:08:18.604Z,99.99
2018-06-28T01:09:18.542Z,99.99
2018-06-28T01:10:18.514Z,99.99
2018-06-28T01:11:18.486Z,99.99
2018-06-28T01:12:18.461Z,99.99
2018-06-28T01:13:18.480Z,99.99
2018-06-28T01:14:18.412Z,99.99
2018-06-28T01:15:18.390Z,99.99
2018-06-28T01:16:18.362Z,99.99
2018-06-28T01:17:18.332Z,99.99
2018-06-28T01:18:18.355Z,99.99
2018-06-28T01:19:18.326Z,99.99
2018-06-28T01:20:18.300Z,99.99
2018-06-28T01:21:18.237Z,99.99
2018-06-28T01:22:18.214Z,99.99
2018-06-28T01:23:18.185Z,99.99
2018-06-28T01:24:18.263Z,99.99
2018-06-28T01:25:18.144Z,99.99
2018-06-28T01:26:18.106Z,99.99
2018-06-28T01:27:18.081Z,99.99
2018-06-28T01:28:18.058Z,99.99
2018-06-28T01:29:18.398Z,99.99
2018-06-28T01:30:18.058Z,99.99
2018-06-28T01:31:17.989Z,99.99
2018-06-28T01:32:17.951Z,99.99
2018-06-28T01:33:17.966Z,99.99
2018-06-28T01:34:17.906Z,99.99
2018-06-28T01:35:17.924Z,99.99
2018-06-28T01:36:17.849Z,99.99
2018-06-28T01:37:17.830Z,99.99
2018-06-28T01:38:17.801Z,99.99
2018-06-28T01:39:17.775Z,99.99
2018-06-28T01:40:17.788Z,99.99
2018-06-28T01:41:17.718Z,99.99
2018-06-28T01:42:17.701Z,99.99
2018-06-28T01:43:17.669Z,99.99
2018-06-28T01:44:17.694Z,99.99
2018-06-28T01:45:17.685Z,99.99
2018-06-28T01:46:17.593Z,99.99
2018-06-28T01:47:17.567Z,99.99
2018-06-28T01:48:17.572Z,99.99
2018-06-28T01:49:17.515Z,99.99
2018-06-28T01:50:17.532Z,99.99
2018-06-28T01:51:17.509Z,99.99
2018-06-28T01:52:17.436Z,99.99
2018-06-28T01:53:17.417Z,99.99
2018-06-28T01:54:17.387Z,99.99
2018-06-28T01:55:17.358Z,99.99
2018-06-28T01:56:17.379Z,99.99
2018-06-28T01:57:17.305Z,99.99
2018-06-28T01:58:17.282Z,99.99
2018-06-28T01:59:17.260Z,99.99
2018-06-28T02:00:17.233Z,99.99
2018-06-28T02:01:17.250Z,99.99
2018-06-28T02:02:17.182Z,99.99
2018-06-28T02:03:17.155Z,99.99
2018-06-28T02:04:17.124Z,99.99
2018-06-28T02:05:17.099Z,99.99
2018-06-28T02:06:17.140Z,99.99
2018-06-28T02:07:17.047Z,99.99
2018-06-28T02:08:17.021Z,99.99
2018-06-28T02:09:17.850Z,99.99
2018-06-28T02:10:16.972Z,99.99
2018-06-28T02:11:17.002Z,99.99
2018-06-28T02:12:16.972Z,99.99
2018-06-28T02:13:16.890Z,99.99
2018-06-28T02:14:16.871Z,99.99
2018-06-28T02:15:16.858Z,99.99
2018-06-28T02:16:16.813Z,99.99
2018-06-28T02:17:16.832Z,99.99
2018-06-28T02:18:17.352Z,99.99
2018-06-28T02:19:16.740Z,99.99
2018-06-28T02:20:17.358Z,99.99
2018-06-28T02:21:16.682Z,99.99
2018-06-28T02:22:16.697Z,99.99
2018-06-28T02:23:17.372Z,99.99
2018-06-28T02:24:16.651Z,99.99
2018-06-28T02:25:17.367Z,99.99
2018-06-28T02:26:16.558Z,99.99
2018-06-28T02:27:16.528Z,99.99
2018-06-28T02:28:17.353Z,99.99
2018-06-28T02:29:16.522Z,99.99
2018-06-28T02:30:16.449Z,99.99
2018-06-28T02:31:19.356Z,99.99
2018-06-28T02:32:16.395Z,99.99
2018-06-28T02:33:16.420Z,99.99
2018-06-28T02:34:16.397Z,99.99
2018-06-28T02:35:16.317Z,99.99
2018-06-28T02:36:16.295Z,99.99
2018-06-28T02:37:16.855Z,99.99
2018-06-28T02:38:16.335Z,99.99
2018-06-28T02:39:16.213Z,99.99
2018-06-28T02:40:16.186Z,99.99
2018-06-28T02:41:16.854Z,99.99
2018-06-28T02:42:16.136Z,99.99
2018-06-28T02:43:16.167Z,99.99
2018-06-28T02:44:16.091Z,99.99
2018-06-28T02:45:16.067Z,99.99
2018-06-28T02:46:16.032Z,99.99
2018-06-28T02:47:16.005Z,99.99
2018-06-28T02:48:16.036Z,99.99
2018-06-28T02:49:16.410Z,99.99
2018-06-28T02:50:15.925Z,99.99
2018-06-28T02:51:15.896Z,99.99
2018-06-28T02:52:16.862Z,99.99
2018-06-28T02:53:15.854Z,99.99
2018-06-28T02:54:15.859Z,99.99
2018-06-28T02:55:16.365Z,99.99
2018-06-28T02:56:15.770Z,99.99
2018-06-28T02:57:15.742Z,99.99
2018-06-28T02:58:16.364Z,99.99
2018-06-28T02:59:15.736Z,99.99
2018-06-28T03:00:15.706Z,99.99
2018-06-28T03:01:16.357Z,99.99
2018-06-28T03:02:15.611Z,99.99
2018-06-28T03:03:15.581Z,99.99
2018-06-28T03:04:15.556Z,99.99
2018-06-28T03:05:15.928Z,99.99
2018-06-28T03:06:15.506Z,99.99
2018-06-28T03:07:16.382Z,99.99
2018-06-28T03:08:15.452Z,99.99
2018-06-28T03:09:16.365Z,99.99
2018-06-28T03:10:15.438Z,99.99
2018-06-28T03:11:15.430Z,99.99
2018-06-28T03:12:15.348Z,99.99
2018-06-28T03:13:15.862Z,99.99
2018-06-28T03:14:15.293Z,99.99
2018-06-28T03:15:15.268Z,99.99
2018-06-28T03:16:15.417Z,99.99
2018-06-28T03:17:15.213Z,99.99
2018-06-28T03:18:15.189Z,99.99
2018-06-28T03:19:15.165Z,99.99
2018-06-28T03:20:15.873Z,99.99
2018-06-28T03:21:15.150Z,99.99
2018-06-28T03:22:15.081Z,99.99
2018-06-28T03:23:15.096Z,99.99
2018-06-28T03:24:15.027Z,99.99
2018-06-28T03:25:15.771Z,99.99
2018-06-28T03:26:15.027Z,99.99
2018-06-28T03:27:14.946Z,99.99
2018-06-28T03:28:16.481Z,99.99
2018-06-28T03:29:14.892Z,99.99
2018-06-28T03:30:14.912Z,99.99
2018-06-28T03:31:14.843Z,99.99
2018-06-28T03:32:15.368Z,99.99
2018-06-28T03:33:14.830Z,99.99
2018-06-28T03:34:14.763Z,99.99
2018-06-28T03:35:14.740Z,99.99
2018-06-28T03:36:14.712Z,99.99
2018-06-28T03:37:14.682Z,99.99
2018-06-28T03:38:14.702Z,99.99
2018-06-28T03:39:14.630Z,99.99
2018-06-28T03:40:14.605Z,99.99
2018-06-28T03:41:14.580Z,99.99
2018-06-28T03:42:14.554Z,99.99
2018-06-28T03:43:14.571Z,99.99
2018-06-28T03:44:14.499Z,99.99
2018-06-28T03:45:14.517Z,99.99
2018-06-28T03:46:14.449Z,99.99
2018-06-28T03:47:14.421Z,99.99
2018-06-28T03:48:14.435Z,99.99
2018-06-28T03:49:14.868Z,99.99
2018-06-28T03:50:14.386Z,99.99
2018-06-28T03:51:14.317Z,99.99
2018-06-28T03:52:14.295Z,99.99
2018-06-28T03:53:14.265Z,99.99
2018-06-28T03:54:14.236Z,99.99
2018-06-28T03:55:14.427Z,99.99
2018-06-28T03:56:14.185Z,99.99
2018-06-28T03:57:14.165Z,99.99
2018-06-28T03:58:14.898Z,99.99
2018-06-28T03:59:14.103Z,99.99
2018-06-28T04:00:14.119Z,99.99
2018-06-28T04:01:14.059Z,99.99
2018-06-28T04:02:14.879Z,99.99
2018-06-28T04:03:14.159Z,99.99
2018-06-28T04:04:13.974Z,99.99
2018-06-28T04:05:13.949Z,99.99
2018-06-28T04:06:13.924Z,99.99
2018-06-28T04:07:14.870Z,99.99
2018-06-28T04:08:13.934Z,99.99
2018-06-28T04:09:13.862Z,99.99
2018-06-28T04:10:13.819Z,99.99
2018-06-28T04:11:14.372Z,99.99
2018-06-28T04:12:13.768Z,99.99
2018-06-28T04:13:13.793Z,99.99
2018-06-28T04:14:13.716Z,99.99
2018-06-28T04:15:14.399Z,99.99
2018-06-28T04:16:13.671Z,99.99
2018-06-28T04:17:13.635Z,99.99
2018-06-28T04:18:13.931Z,99.99
2018-06-28T04:19:13.585Z,99.99
2018-06-28T04:20:13.558Z,99.99
2018-06-28T04:21:13.578Z,99.99
2018-06-28T04:22:13.506Z,99.99
2018-06-28T04:23:14.377Z,99.99
2018-06-28T04:24:13.460Z,99.99
2018-06-28T04:25:13.436Z,99.99
2018-06-28T04:26:13.924Z,99.99
2018-06-28T04:27:13.378Z,99.99
2018-06-28T04:28:13.356Z,99.99
2018-06-28T04:29:13.874Z,99.99
2018-06-28T04:30:13.344Z,99.99
2018-06-28T04:31:13.878Z,99.99
2018-06-28T04:32:13.250Z,99.99
2018-06-28T04:33:13.245Z,99.99
2018-06-28T04:34:13.877Z,99.99
2018-06-28T04:35:13.241Z,99.99
2018-06-28T04:36:13.156Z,99.99
2018-06-28T04:37:13.440Z,99.99
2018-06-28T04:38:13.109Z,99.99
2018-06-28T04:39:13.073Z,99.99
2018-06-28T04:40:13.046Z,99.99
2018-06-28T04:41:13.886Z,99.99
2018-06-28T04:42:13.051Z,99.99
2018-06-28T04:43:12.968Z,99.99
2018-06-28T04:44:13.882Z,99.99
2018-06-28T04:45:12.926Z,99.99
2018-06-28T04:46:12.892Z,99.99
2018-06-28T04:47:12.931Z,99.99
2018-06-28T04:48:12.845Z,99.99
2018-06-28T04:49:12.819Z,99.99
2018-06-28T04:50:12.790Z,99.99
2018-06-28T04:51:12.948Z,99.99
2018-06-28T04:52:12.740Z,99.99
2018-06-28T04:53:12.715Z,99.99
2018-06-28T04:54:12.690Z,99.99
2018-06-28T04:55:12.666Z,99.99
2018-06-28T04:56:12.914Z,99.99
2018-06-28T04:57:12.611Z,99.99
2018-06-28T04:58:12.589Z,99.99
2018-06-28T04:59:12.599Z,99.99
2018-06-28T05:00:12.558Z,99.99
2018-06-28T05:01:13.396Z,99.99
2018-06-28T05:02:12.541Z,99.99
2018-06-28T05:03:12.471Z,99.99
2018-06-28T05:04:12.439Z,99.92
2018-06-28T05:05:13.383Z,97.91
2018-06-28T05:06:12.394Z,97.86
2018-06-28T05:07:12.421Z,97.57
2018-06-28T05:08:12.341Z,97.57
2018-06-28T05:09:12.882Z,96.89
2018-06-28T05:10:12.298Z,96.94
2018-06-28T05:11:13.296Z,97.61
2018-06-28T05:12:12.286Z,97.14
2018-06-28T05:13:12.221Z,97.66
2018-06-28T05:14:12.884Z,96.89
2018-06-28T05:15:12.175Z,96.61
2018-06-28T05:16:12.441Z,96.03
2018-06-28T05:17:12.192Z,96.32
2018-06-28T05:18:12.144Z,95.94
2018-06-28T05:19:12.089Z,95.94
2018-06-28T05:20:12.060Z,95.84
2018-06-28T05:21:12.044Z,96.03
2018-06-28T05:22:12.059Z,96.42
2018-06-28T05:23:11.996Z,96.47
2018-06-28T05:24:12.890Z,96.56
2018-06-28T05:25:11.962Z,97.24
2018-06-28T05:26:11.933Z,97.61
2018-06-28T05:27:12.049Z,97.66
2018-06-28T05:28:11.885Z,96.85
2018-06-28T05:29:11.902Z,96.94
2018-06-28T05:30:11.841Z,96.70
2018-06-28T05:31:11.814Z,96.47
2018-06-28T05:32:11.854Z,96.03
2018-06-28T05:33:11.785Z,95.75
2018-06-28T05:34:11.747Z,96.22
2018-06-28T05:35:11.794Z,96.51
2018-06-28T05:36:11.698Z,95.84
2018-06-28T05:37:11.945Z,95.84
2018-06-28T05:38:11.701Z,95.75
2018-06-28T05:39:11.648Z,95.94
2018-06-28T05:40:11.609Z,95.94
2018-06-28T05:41:11.584Z,96.13
2018-06-28T05:42:11.564Z,96.32
2018-06-28T05:43:11.596Z,96.13
2018-06-28T05:44:11.511Z,96.13
2018-06-28T05:45:11.499Z,95.75
2018-06-28T05:46:11.468Z,95.84
2018-06-28T05:47:12.509Z,96.03
2018-06-28T05:48:11.466Z,95.94
2018-06-28T05:49:11.402Z,95.75
2018-06-28T05:50:11.378Z,95.84
2018-06-28T05:51:11.352Z,95.07
2018-06-28T05:52:11.896Z,95.50
2018-06-28T05:53:11.340Z,94.83
2018-06-28T05:54:11.390Z,94.26
2018-06-28T05:55:11.257Z,94.64
2018-06-28T05:56:11.232Z,93.58
2018-06-28T05:57:11.214Z,93.87
2018-06-28T05:58:11.190Z,93.77
2018-06-28T05:59:11.255Z,94.06
2018-06-28T06:00:11.150Z,93.39
2018-06-28T06:01:11.117Z,94.35
2018-06-28T06:02:11.910Z,94.26
2018-06-28T06:03:11.079Z,93.58
2018-06-28T06:04:11.097Z,93.77
2018-06-28T06:05:11.031Z,92.81
2018-06-28T06:06:10.998Z,93.19
2018-06-28T06:07:11.902Z,91.66
2018-06-28T06:08:10.950Z,91.99
2018-06-28T06:09:10.971Z,91.42
2018-06-28T06:10:10.953Z,91.52
2018-06-28T06:11:10.881Z,91.52
2018-06-28T06:12:11.466Z,91.42
2018-06-28T06:13:10.835Z,91.42
2018-06-28T06:14:10.858Z,91.52
2018-06-28T06:15:10.787Z,91.13
2018-06-28T06:16:10.765Z,91.13
2018-06-28T06:17:10.746Z,91.32
2018-06-28T06:18:10.724Z,91.80
2018-06-28T06:19:10.739Z,91.03
2018-06-28T06:20:10.751Z,90.36
2018-06-28T06:21:10.649Z,90.55
2018-06-28T06:22:10.629Z,91.17
2018-06-28T06:23:11.409Z,90.89
2018-06-28T06:24:10.586Z,90.45
2018-06-28T06:25:10.599Z,90.31
2018-06-28T06:26:10.535Z,90.21
2018-06-28T06:27:10.512Z,89.73
2018-06-28T06:28:10.672Z,88.10
2018-06-28T06:29:10.472Z,88.67
2018-06-28T06:30:10.489Z,88.77
2018-06-28T06:31:10.421Z,88.77
2018-06-28T06:32:10.395Z,88.29
2018-06-28T06:33:10.378Z,88.81
2018-06-28T06:34:10.353Z,88.62
2018-06-28T06:35:10.365Z,88.71
2018-06-28T06:36:10.307Z,88.24
2018-06-28T06:37:10.336Z,88.14
2018-06-28T06:38:10.371Z,87.95
2018-06-28T06:39:10.238Z,87.95
2018-06-28T06:40:10.213Z,87.95
2018-06-28T06:41:10.234Z,88.04
2018-06-28T06:42:10.168Z,87.66
2018-06-28T06:43:10.906Z,87.56
2018-06-28T06:44:10.126Z,87.95
2018-06-28T06:45:10.106Z,87.85
2018-06-28T06:46:10.119Z,88.14
2018-06-28T06:47:10.058Z,87.46
2018-06-28T06:48:10.461Z,87.37
2018-06-28T06:49:10.019Z,86.22
2018-06-28T06:50:09.988Z,86.31
2018-06-28T06:51:10.022Z,85.25
2018-06-28T06:52:09.945Z,85.16
2018-06-28T06:53:09.919Z,86.26
2018-06-28T06:54:09.945Z,86.45
2018-06-28T06:55:09.876Z,86.35
2018-06-28T06:56:09.852Z,86.26
2018-06-28T06:57:09.828Z,85.20
2018-06-28T06:58:09.811Z,85.78
2018-06-28T06:59:09.824Z,85.00
2018-06-28T07:00:09.951Z,85.00
2018-06-28T07:01:09.784Z,85.00
2018-06-28T07:02:10.411Z,85.49
2018-06-28T07:03:09.694Z,85.78
2018-06-28T07:04:09.673Z,85.10
2018-06-28T07:05:09.649Z,84.62
2018-06-28T07:06:09.967Z,84.95
2018-06-28T07:07:09.647Z,84.47
2018-06-28T07:08:09.594Z,84.28
2018-06-28T07:09:09.574Z,84.66
2018-06-28T07:10:09.627Z,83.89
2018-06-28T07:11:09.521Z,83.70
2018-06-28T07:12:09.560Z,82.93
2018-06-28T07:13:09.471Z,82.93
2018-06-28T07:14:09.447Z,83.03
2018-06-28T07:15:09.425Z,82.78
2018-06-28T07:16:09.455Z,82.01
2018-06-28T07:17:09.386Z,82.20
2018-06-28T07:18:09.360Z,82.39
2018-06-28T07:19:09.919Z,82.49
2018-06-28T07:20:09.332Z,81.91
2018-06-28T07:21:09.335Z,82.01
2018-06-28T07:22:09.305Z,82.39
2018-06-28T07:23:09.266Z,82.78
2018-06-28T07:24:09.226Z,81.62
2018-06-28T07:25:09.998Z,81.43
2018-06-28T07:26:09.240Z,81.47
2018-06-28T07:27:09.157Z,80.69
2018-06-28T07:28:09.185Z,80.60
2018-06-28T07:29:09.118Z,80.89
2018-06-28T07:30:09.922Z,80.69
2018-06-28T07:31:09.072Z,81.18
2018-06-28T07:32:09.110Z,79.35
2018-06-28T07:33:09.054Z,80.31
2018-06-28T07:34:09.036Z,79.16
2018-06-28T07:35:09.933Z,79.35
2018-06-28T07:36:08.968Z,79.06
2018-06-28T07:37:09.001Z,78.81
2018-06-28T07:38:08.925Z,79.58
2018-06-28T07:39:08.930Z,78.33
2018-06-28T07:40:08.886Z,78.91
2018-06-28T07:41:08.875Z,78.91
2018-06-28T07:42:08.906Z,78.42
2018-06-28T07:43:08.822Z,78.33
2018-06-28T07:44:08.793Z,77.98
2018-06-28T07:45:08.771Z,78.08
2018-06-28T07:46:08.750Z,78.08
2018-06-28T07:47:08.772Z,77.30
2018-06-28T07:48:08.759Z,77.69
2018-06-28T07:49:08.754Z,77.40
2018-06-28T07:50:08.662Z,77.98
2018-06-28T07:51:08.644Z,77.50
2018-06-28T07:52:08.629Z,77.21
2018-06-28T07:53:08.653Z,76.43
2018-06-28T07:54:08.592Z,75.67
2018-06-28T07:55:08.600Z,76.72
2018-06-28T07:56:08.539Z,76.82
2018-06-28T07:57:08.513Z,76.76
2018-06-28T07:58:08.495Z,75.99
2018-06-28T07:59:08.533Z,75.22
2018-06-28T08:00:08.454Z,75.31
2018-06-28T08:01:08.431Z,75.70
2018-06-28T08:02:08.407Z,75.70
2018-06-28T08:03:08.389Z,75.79
2018-06-28T08:04:08.435Z,74.93
2018-06-28T08:05:08.345Z,75.64
2018-06-28T08:06:08.325Z,75.45
2018-06-28T08:07:08.303Z,74.38
2018-06-28T08:08:08.287Z,73.71
2018-06-28T08:09:08.321Z,73.71
2018-06-28T08:10:08.244Z,74.48
2018-06-28T08:11:08.219Z,74.19
2018-06-28T08:12:08.198Z,73.80
2018-06-28T08:13:08.182Z,73.71
2018-06-28T08:14:08.200Z,72.88
2018-06-28T08:15:08.932Z,72.97
2018-06-28T08:16:08.161Z,72.49
2018-06-28T08:17:08.097Z,72.97
2018-06-28T08:18:08.085Z,72.97
2018-06-28T08:19:08.052Z,70.56
2018-06-28T08:20:08.051Z,72.20
2018-06-28T08:21:08.058Z,70.84
2018-06-28T08:22:07.996Z,70.56
2018-06-28T08:23:07.971Z,70.26
2018-06-28T08:24:07.960Z,70.65
2018-06-28T08:25:07.931Z,71.52
2018-06-28T08:26:07.956Z,70.84
2018-06-28T08:27:07.946Z,70.30
2018-06-28T08:28:07.875Z,70.50
2018-06-28T08:29:07.850Z,70.88
2018-06-28T08:30:07.835Z,70.30
2018-06-28T08:31:07.864Z,69.53
2018-06-28T08:32:08.464Z,70.30
2018-06-28T08:33:07.770Z,70.88
2018-06-28T08:34:07.747Z,70.50
2018-06-28T08:35:07.791Z,70.01
2018-06-28T08:36:07.809Z,69.82
2018-06-28T08:37:07.986Z,69.72
2018-06-28T08:38:07.665Z,69.08
2018-06-28T08:39:07.655Z,68.56
2018-06-28T08:40:07.621Z,68.79
2018-06-28T08:41:07.601Z,68.30
2018-06-28T08:42:08.020Z,68.88
2018-06-28T08:43:07.568Z,68.79
2018-06-28T08:44:07.550Z,68.59
2018-06-28T08:45:07.529Z,68.88
2018-06-28T08:46:08.443Z,68.79
2018-06-28T08:47:08.006Z,68.11
2018-06-28T08:48:07.459Z,68.69
2018-06-28T08:49:07.505Z,68.30
2018-06-28T08:50:07.422Z,67.14
2018-06-28T08:51:07.399Z,67.53
2018-06-28T08:52:07.507Z,67.63
2018-06-28T08:53:07.446Z,67.72
2018-06-28T08:54:07.340Z,67.43
2018-06-28T08:55:07.320Z,66.95
2018-06-28T08:56:07.308Z,67.53
2018-06-28T08:57:07.519Z,67.95
2018-06-28T08:58:07.333Z,67.95
2018-06-28T08:59:07.288Z,67.18
2018-06-28T09:00:07.233Z,67.18
2018-06-28T09:01:07.237Z,66.40
2018-06-28T09:02:07.983Z,67.27
2018-06-28T09:03:07.161Z,66.50
2018-06-28T09:04:07.183Z,65.92
2018-06-28T09:05:07.119Z,66.69
2018-06-28T09:06:07.114Z,66.63
2018-06-28T09:07:07.127Z,66.05
2018-06-28T09:08:07.142Z,65.82
2018-06-28T09:09:07.128Z,67.02
2018-06-28T09:10:07.019Z,66.92
2018-06-28T09:11:07.007Z,67.30
2018-06-28T09:12:07.032Z,66.53
2018-06-28T09:13:06.968Z,65.95
2018-06-28T09:14:06.984Z,64.79
2018-06-28T09:15:06.922Z,64.89
2018-06-28T09:16:06.903Z,64.98
2018-06-28T09:17:06.946Z,64.79
2018-06-28T09:18:06.883Z,65.56
2018-06-28T09:19:06.845Z,66.08
2018-06-28T09:20:06.827Z,65.79
2018-06-28T09:21:06.817Z,65.37
2018-06-28T09:22:06.830Z,65.17
2018-06-28T09:23:06.842Z,65.47
2018-06-28T09:24:06.790Z,65.69
2018-06-28T09:25:06.730Z,64.34
2018-06-28T09:26:06.708Z,62.69
2018-06-28T09:27:06.690Z,61.91
2018-06-28T09:28:06.672Z,61.91
2018-06-28T09:29:06.707Z,62.69
2018-06-28T09:30:06.637Z,61.91
2018-06-28T09:31:06.616Z,61.85
2018-06-28T09:32:06.596Z,61.85
2018-06-28T09:33:06.581Z,61.75
2018-06-28T09:34:06.609Z,60.97
2018-06-28T09:35:06.540Z,61.36
2018-06-28T09:36:06.516Z,61.36
2018-06-28T09:37:06.504Z,60.23
2018-06-28T09:38:06.480Z,60.32
2018-06-28T09:39:06.508Z,61.58
2018-06-28T09:40:06.501Z,61.78
2018-06-28T09:41:06.427Z,60.13
2018-06-28T09:42:06.405Z,58.67
2018-06-28T09:43:06.394Z,59.55
2018-06-28T09:44:06.378Z,60.03
2018-06-28T09:45:06.398Z,60.03
2018-06-28T09:46:06.332Z,60.03
2018-06-28T09:47:06.962Z,59.09
2018-06-28T09:48:06.293Z,59.97
2018-06-28T09:49:06.277Z,59.87
2018-06-28T09:50:06.323Z,59.97
2018-06-28T09:51:06.241Z,58.03
2018-06-28T09:52:06.990Z,59.00
2018-06-28T09:53:06.205Z,59.09
2018-06-28T09:54:06.209Z,58.51
2018-06-28T09:55:06.211Z,59.09
2018-06-28T09:56:06.962Z,58.51
2018-06-28T09:57:06.209Z,58.31
2018-06-28T09:58:06.132Z,58.41
2018-06-28T09:59:06.096Z,58.90
2018-06-28T10:00:06.078Z,59.19
2018-06-28T10:01:06.103Z,59.00
2018-06-28T10:02:06.039Z,58.12
2018-06-28T10:03:06.071Z,57.18
2018-06-28T10:04:06.011Z,57.44
2018-06-28T10:05:05.984Z,57.34
2018-06-28T10:06:05.978Z,58.31
2018-06-28T10:07:05.993Z,57.54
2018-06-28T10:08:05.931Z,57.83
2018-06-28T10:09:05.917Z,57.93
2018-06-28T10:10:05.898Z,57.25
2018-06-28T10:11:05.875Z,56.86
2018-06-28T10:12:05.914Z,57.54
2018-06-28T10:13:05.841Z,56.67
2018-06-28T10:14:05.879Z,57.34
2018-06-28T10:15:05.807Z,57.34
2018-06-28T10:16:06.467Z,56.70
2018-06-28T10:17:05.773Z,56.40
2018-06-28T10:18:05.817Z,56.28
2018-06-28T10:19:05.777Z,56.09
2018-06-28T10:20:05.811Z,55.89
2018-06-28T10:21:06.474Z,56.09
2018-06-28T10:22:05.681Z,56.50
2018-06-28T10:23:05.681Z,56.21
2018-06-28T10:24:05.693Z,56.50
2018-06-28T10:25:05.642Z,56.70
2018-06-28T10:26:05.608Z,56.60
2018-06-28T10:27:05.591Z,56.79
2018-06-28T10:28:05.572Z,56.60
2018-06-28T10:29:05.601Z,55.63
2018-06-28T10:30:05.541Z,56.30
2018-06-28T10:31:05.544Z,56.30
2018-06-28T10:32:05.504Z,56.60
2018-06-28T10:33:06.381Z,55.92
2018-06-28T10:34:05.523Z,56.21
2018-06-28T10:35:05.453Z,56.21
2018-06-28T10:36:05.435Z,56.43
2018-06-28T10:37:05.420Z,55.46
2018-06-28T10:38:05.396Z,54.97
2018-06-28T10:39:05.425Z,55.55
2018-06-28T10:40:05.363Z,55.49
2018-06-28T10:41:05.349Z,54.97
2018-06-28T10:42:05.327Z,54.68
2018-06-28T10:43:05.353Z,54.00
2018-06-28T10:44:05.291Z,54.29
2018-06-28T10:45:05.320Z,53.71
2018-06-28T10:46:05.262Z,54.78
2018-06-28T10:47:05.241Z,55.07
2018-06-28T10:48:05.276Z,56.04
2018-06-28T10:49:05.205Z,56.04
2018-06-28T10:50:05.189Z,55.58
2018-06-28T10:51:05.227Z,55.68
2018-06-28T10:52:05.154Z,55.68
2018-06-28T10:53:05.137Z,55.10
2018-06-28T10:54:05.174Z,54.03
2018-06-28T10:55:05.102Z,54.88
2018-06-28T10:56:05.134Z,54.78
2018-06-28T10:57:05.075Z,55.17
2018-06-28T10:58:05.051Z,53.91
2018-06-28T10:59:05.033Z,55.17
2018-06-28T11:00:05.019Z,55.46
2018-06-28T11:01:05.050Z,54.49
2018-06-28T11:02:04.980Z,54.68
2018-06-28T11:03:04.967Z,54.00
2018-06-28T11:04:04.949Z,54.03
2018-06-28T11:05:04.984Z,53.93
2018-06-28T11:06:04.917Z,53.93
2018-06-28T11:07:04.895Z,54.61
2018-06-28T11:08:04.878Z,54.61
2018-06-28T11:09:04.869Z,55.10
2018-06-28T11:10:05.033Z,55.00
2018-06-28T11:11:04.873Z,54.71
2018-06-28T11:12:04.888Z,53.74
2018-06-28T11:13:04.791Z,53.83
2018-06-28T11:14:04.819Z,54.74
2018-06-28T11:15:04.762Z,53.35
2018-06-28T11:16:04.740Z,53.35
2018-06-28T11:17:04.722Z,53.06
2018-06-28T11:18:04.709Z,53.06
2018-06-28T11:19:04.732Z,52.76
2018-06-28T11:20:04.680Z,53.35
2018-06-28T11:21:04.655Z,53.25
2018-06-28T11:22:04.637Z,53.71
2018-06-28T11:23:04.622Z,53.81
2018-06-28T11:24:04.652Z,53.91
2018-06-28T11:25:05.573Z,53.93
2018-06-28T11:26:04.569Z,54.22
2018-06-28T11:27:04.596Z,54.52
2018-06-28T11:28:04.539Z,53.83
2018-06-28T11:29:04.515Z,53.35
2018-06-28T11:30:05.498Z,53.83
2018-06-28T11:31:04.481Z,53.06
2018-06-28T11:32:04.500Z,53.16
2018-06-28T11:33:04.490Z,53.45
2018-06-28T11:34:04.462Z,54.05
2018-06-28T11:35:04.995Z,53.38
2018-06-28T11:36:04.391Z,53.86
2018-06-28T11:37:04.378Z,53.86
2018-06-28T11:38:04.414Z,54.64
2018-06-28T11:39:04.354Z,53.96
2018-06-28T11:40:04.362Z,54.35
2018-06-28T11:41:04.994Z,52.89
2018-06-28T11:42:04.292Z,53.35
2018-06-28T11:43:04.322Z,54.03
2018-06-28T11:44:04.256Z,54.03
2018-06-28T11:45:05.039Z,54.13
2018-06-28T11:46:04.239Z,54.52
2018-06-28T11:47:04.213Z,54.32
2018-06-28T11:48:04.234Z,54.61
2018-06-28T11:49:05.000Z,53.74
2018-06-28T11:50:04.152Z,51.11
2018-06-28T11:51:04.137Z,51.62
2018-06-28T11:52:04.120Z,51.23
2018-06-28T11:53:04.146Z,52.59
2018-06-28T11:54:04.083Z,52.82
2018-06-28T11:55:04.070Z,51.36
2018-06-28T11:56:04.051Z,50.78
2018-06-28T11:57:04.040Z,51.36
2018-06-28T11:58:04.061Z,51.36
2018-06-28T11:59:04.000Z,50.97
2018-06-28T12:00:03.994Z,51.84
2018-06-28T12:01:03.967Z,51.45
2018-06-28T12:02:03.948Z,51.62
2018-06-28T12:03:03.973Z,51.62
2018-06-28T12:04:03.918Z,51.33
2018-06-28T12:05:03.898Z,51.14
2018-06-28T12:06:03.880Z,51.33
2018-06-28T12:07:03.866Z,52.53
2018-06-28T12:08:03.890Z,51.33
2018-06-28T12:09:03.830Z,51.26
2018-06-28T12:10:03.817Z,50.95
2018-06-28T12:11:03.793Z,51.72
2018-06-28T12:12:03.778Z,51.99
2018-06-28T12:13:03.804Z,52.76
2018-06-28T12:14:03.752Z,52.57
2018-06-28T12:15:03.726Z,52.67
2018-06-28T12:16:03.723Z,52.94
2018-06-28T12:17:03.759Z,52.64
2018-06-28T12:18:03.729Z,53.52
2018-06-28T12:19:03.657Z,53.45
2018-06-28T12:20:03.646Z,53.93
2018-06-28T12:21:03.626Z,53.45
2018-06-28T12:22:03.605Z,52.79
2018-06-28T12:23:03.633Z,52.79
2018-06-28T12:24:03.571Z,52.40
2018-06-28T12:25:03.551Z,52.79
2018-06-28T12:26:03.541Z,53.11
2018-06-28T12:27:03.566Z,52.72
2018-06-28T12:28:03.504Z,51.17
2018-06-28T12:29:03.583Z,50.95
2018-06-28T12:30:03.468Z,50.46
2018-06-28T12:31:03.475Z,50.65
2018-06-28T12:32:03.486Z,49.87
2018-06-28T12:33:03.417Z,50.26
2018-06-28T12:34:03.397Z,50.07
2018-06-28T12:35:03.384Z,51.53
2018-06-28T12:36:03.373Z,51.17
2018-06-28T12:37:03.395Z,51.36
2018-06-28T12:38:03.330Z,50.09
2018-06-28T12:39:03.440Z,50.19
2018-06-28T12:40:03.294Z,49.99
2018-06-28T12:41:03.284Z,49.90
2018-06-28T12:42:03.262Z,50.58
2018-06-28T12:43:03.240Z,50.38
2018-06-28T12:44:03.279Z,49.80
2018-06-28T12:45:03.309Z,49.99
2018-06-28T12:46:03.213Z,49.87
2018-06-28T12:47:03.175Z,50.36
2018-06-28T12:48:03.164Z,50.26
2018-06-28T12:49:03.198Z,51.33
2018-06-28T12:50:03.186Z,51.14
2018-06-28T12:51:03.105Z,51.53
2018-06-28T12:52:03.094Z,50.65